Flight Track Log - Related Links

Times and Time Zones

All times are in EDT time to prevent confusion due to time zone crossing. See the UAL139 flight status page for this flight to view local times or setup timezone preferences in your user account.

Time Position Orientation Groundspeed Altitude Reporting Facility
EDT Latitude Longitude Course Direction KTS MPH feet Rate Location/Type
Fri 02:55:58 PM 39.7917 -104.6933 265° West 213 245 7,100  Level FlightAware ADS-B (EGNT / NCL)
Fri 02:56:08 PM 39.8000 -104.7167 270° West 241 277 7,400 1,000 Climbing Denver TRACON
Fri 02:56:16 PM 39.7961 -104.7271 281° West 239 275 7,400 1,059 Level FlightAware ADS-B (EGNT / NCL)
Fri 02:56:42 PM 39.8004 -104.7410 290° West 267 307 8,000 2,000 Climbing FlightAware ADS-B (EGNT / NCL)
Fri 02:56:58 PM 39.8158 -104.7923 290° West 282 325 8,800 2,769 Climbing FlightAware ADS-B (EGNT / NCL)
Fri 02:57:08 PM 39.8167 -104.8000 285° West 296 341 9,200 1,973 Climbing Denver TRACON
Fri 02:58:11 PM 39.8481 -104.9189 289° West 311 358 11,200 1,968 Climbing Denver Center
Fri 02:59:00 PM 39.9980 -105.0553 276° West  Level Estimated
Fri 02:59:13 PM 39.8686 -105.0453 282° West 354 407 13,300  Level Denver Center
Fri 03:00:00 PM 40.0873 -105.1851 276° West  Level Estimated
Fri 03:00:15 PM 39.8919 -105.1842 282° West 362 417 16,100  Level Denver Center
Fri 03:01:00 PM 40.1766 -105.3153 270° West  Level Estimated
Fri 03:01:17 PM 39.9144 -105.3178 282° West 375 432 17,900  Level Denver Center
Fri 03:02:19 PM 39.9578 -105.4589 292° West 386 444 20,100 2,064 Climbing Denver Center
Fri 03:03:22 PM 40.0161 -105.5781 303° West 388 447 22,200 1,968 Climbing Denver Center
Fri 03:04:24 PM 40.0864 -105.6942 308° West 405 466 24,200 1,694 Climbing Denver Center
Fri 03:05:26 PM 40.1444 -105.8231 301° West 416 479 25,700 1,500 Climbing Denver Center
Fri 03:06:28 PM 40.2094 -105.9547 303° West 430 495 27,300 1,645 Climbing Denver Center
Fri 03:07:30 PM 40.3083 -106.0978 312° West 439 505 29,100 1,403 Climbing Denver Center
Fri 03:08:32 PM 40.3828 -106.2072 312° West 450 518 30,200 1,452 Climbing Denver Center
Fri 03:09:34 PM 40.4853 -106.3561 312° West 455 524 32,100 1,452 Climbing Denver Center
Fri 03:10:36 PM 40.5692 -106.4814 311° West 456 525 33,200 919 Climbing Denver Center
Fri 03:11:38 PM 40.6572 -106.6092 312° West 466 536 34,000 677 Climbing Denver Center
Fri 03:12:40 PM 40.7447 -106.7378 312° West 468 539 34,600 1,104 Climbing Denver Center
Fri 03:13:43 PM 40.8278 -106.8656 311° West 467 537 36,300 1,392 Climbing Denver Center
Fri 03:14:45 PM 40.9194 -107.0031 311° West 450 518 37,500 823 Climbing Denver Center
Fri 03:15:47 PM 40.9989 -107.1211 312° West 449 517 38,000 242 Climbing Denver Center
Fri 03:16:49 PM 41.0889 -107.2589 311° West 448 516 38,000  Level Denver Center
Fri 03:17:51 PM 41.1683 -107.3786 311° West 448 516 38,000  Level Denver Center
Fri 03:18:53 PM 41.2606 -107.5192 311° West 450 518 38,000  Level Denver Center
Fri 03:19:55 PM 41.3378 -107.6397 310° West 450 518 38,000  Level Denver Center
Fri 03:20:57 PM 41.4308 -107.7806 311° West 451 519 38,000  Level Denver Center
Fri 03:21:46 PM 41.4944 -107.8819 310° West 451 519 38,000  Level Salt Lake Center
Fri 03:22:48 PM 41.5725 -108.0042 311° West 452 520 38,000  Level Salt Lake Center
Fri 03:23:50 PM 41.6628 -108.1461 310° West 452 520 38,000  Level Salt Lake Center
Fri 03:24:52 PM 41.7406 -108.2683 310° West 452 520 38,000  Level Salt Lake Center
Fri 03:25:54 PM 41.8328 -108.4119 311° West 454 522 38,000  Level Salt Lake Center
Fri 03:26:56 PM 41.9114 -108.5372 310° West 458 527 38,000  Level Salt Lake Center
Fri 03:27:58 PM 42.0031 -108.6822 310° West 462 532 38,000  Level Salt Lake Center
Fri 03:29:01 PM 42.0803 -108.8058 310° West 457 526 38,000  Level Salt Lake Center
Fri 03:30:03 PM 42.1711 -108.9503 310° West 457 526 38,000  Level Salt Lake Center
Fri 03:31:05 PM 42.2472 -109.0747 310° West 454 522 38,000  Level Salt Lake Center
Fri 03:32:07 PM 42.3383 -109.2233 310° West 456 525 38,000  Level Salt Lake Center
Fri 03:33:09 PM 42.4172 -109.3494 310° West 461 531 38,000  Level Salt Lake Center
Fri 03:34:11 PM 42.5056 -109.5000 309° West 460 529 38,000  Level Salt Lake Center
Fri 03:35:13 PM 42.5564 -109.6497 295° West 460 529 38,000  Level Salt Lake Center
Fri 03:36:15 PM 42.6008 -109.8306 289° West 458 527 38,000  Level Salt Lake Center
Fri 03:37:18 PM 42.6383 -109.9833 288° West 453 521 38,000  Level Salt Lake Center
Fri 03:38:20 PM 42.6822 -110.1653 288° West 453 521 38,000  Level Salt Lake Center
Fri 03:39:22 PM 42.7181 -110.3117 288° West 453 521 38,000  Level Salt Lake Center
Fri 03:40:24 PM 42.7658 -110.5083 288° West 454 522 38,000  Level Salt Lake Center
Fri 03:41:26 PM 42.8056 -110.6742 288° West 457 526 38,000  Level Salt Lake Center
Fri 03:42:28 PM 42.8464 -110.8369 289° West 457 526 38,000  Level Salt Lake Center
Fri 03:43:30 PM 42.8875 -111.0008 289° West 457 526 38,000  Level Salt Lake Center
Fri 03:44:32 PM 42.9281 -111.1661 289° West 457 526 38,000  Level Salt Lake Center
Fri 03:45:35 PM 42.9806 -111.3261 294° West 459 528 38,000  Level Salt Lake Center
Fri 03:46:37 PM 43.0508 -111.5153 297° West 462 532 38,000  Level Salt Lake Center
Fri 03:47:39 PM 43.1133 -111.6692 299° West 463 533 38,000  Level Salt Lake Center
Fri 03:48:41 PM 43.1900 -111.8111 307° West 463 533 38,000  Level Salt Lake Center
Fri 03:49:43 PM 43.2700 -111.9497 308° West 464 534 38,000  Level Salt Lake Center
Fri 03:50:45 PM 43.3542 -112.0869 310° West 465 535 38,000  Level Salt Lake Center
Fri 03:51:47 PM 43.4369 -112.2256 309° West 465 535 38,000  Level Salt Lake Center
Fri 03:52:49 PM 43.5356 -112.3931 309° West 466 536 38,000  Level Salt Lake Center
Fri 03:53:51 PM 43.6178 -112.5328 309° West 466 536 38,000  Level Salt Lake Center
Fri 03:54:54 PM 43.7003 -112.6731 309° West 468 539 38,000  Level Salt Lake Center
Fri 03:55:56 PM 43.7836 -112.8142 309° West 469 540 38,000  Level Salt Lake Center
Fri 03:56:58 PM 43.8667 -112.9550 309° West 470 541 38,000  Level Salt Lake Center
Fri 03:58:00 PM 43.9503 -113.0969 309° West 470 541 38,000  Level Salt Lake Center
Fri 03:59:02 PM 44.0492 -113.2689 309° West 472 543 38,000  Level Salt Lake Center
Fri 04:00:04 PM 44.1178 -113.4242 302° West 472 543 38,000  Level Salt Lake Center
Fri 04:01:06 PM 44.1811 -113.5822 299° West 471 542 38,000  Level Salt Lake Center
Fri 04:02:08 PM 44.2456 -113.7400 300° West 471 542 38,000  Level Salt Lake Center
Fri 04:03:10 PM 44.2889 -113.9339 287° West 467 537 38,000  Level Salt Lake Center
Fri 04:04:13 PM 44.2875 -114.1125 269° West 460 529 38,000  Level Salt Lake Center
Fri 04:05:15 PM 44.3036 -114.2889 277° West 462 532 38,000  Level Salt Lake Center
Fri 04:06:17 PM 44.3467 -114.4592 290° West 463 533 38,000  Level Salt Lake Center
Fri 04:07:19 PM 44.3900 -114.6300 290° West 466 536 38,000  Level Salt Lake Center
Fri 04:08:21 PM 44.4328 -114.7997 289° West 466 536 38,000  Level Salt Lake Center
Fri 04:09:23 PM 44.4800 -115.0075 288° West 467 537 38,000  Level Salt Lake Center
Fri 04:10:25 PM 44.5136 -115.1844 285° West 468 539 38,000  Level Salt Lake Center
Fri 04:11:27 PM 44.5483 -115.3603 286° West 469 540 38,000  Level Salt Lake Center
Fri 04:12:29 PM 44.5847 -115.5342 286° West 469 540 38,000  Level Salt Lake Center
Fri 04:13:32 PM 44.6208 -115.7078 286° West 468 539 38,000  Level Salt Lake Center
Fri 04:14:34 PM 44.6653 -115.9172 287° West 469 540 38,000  Level Salt Lake Center
Fri 04:15:36 PM 44.7025 -116.0897 287° West 469 540 38,000  Level Salt Lake Center
Fri 04:16:38 PM 44.7408 -116.2617 287° West 469 540 38,000  Level Salt Lake Center
Fri 04:17:40 PM 44.8053 -116.4175 300° West 468 539 38,000  Level Salt Lake Center
Fri 04:18:42 PM 44.9175 -116.5750 315° West 475 547 38,000  Level Salt Lake Center
Fri 04:19:44 PM 45.0111 -116.7064 315° West 475 547 38,000  Level Salt Lake Center
Fri 04:20:46 PM 45.1053 -116.8403 315° West 478 550 38,000  Level Salt Lake Center
Fri 04:21:48 PM 45.1986 -116.9742 315° West 479 551 38,000  Level Salt Lake Center
Fri 04:22:51 PM 45.2936 -117.1092 315° West 481 554 38,000  Level Salt Lake Center
Fri 04:23:53 PM 45.3886 -117.2453 315° West 482 555 38,000  Level Salt Lake Center
Fri 04:24:55 PM 45.5033 -117.4108 315° West 486 559 38,000  Level Salt Lake Center
Fri 04:25:57 PM 45.5956 -117.5486 314° West 486 559 38,000  Level Salt Lake Center
Fri 04:26:59 PM 45.6906 -117.6869 315° West 486 559 38,000  Level Salt Lake Center
Fri 04:28:01 PM 45.7897 -117.8325 314° West 486 559 38,000  Level Salt Lake Center
Fri 04:29:03 PM 45.8842 -117.9717 314° West 486 559 38,000  Level Salt Lake Center
Fri 04:30:05 PM 45.9736 -118.1033 314° West 487 560 38,000  Level Salt Lake Center
Fri 04:31:19 PM 46.1078 -118.3033 314° West 492 566 38,000 -44 Level Seattle Center
Fri 04:32:20 PM 46.2019 -118.4461 314° West 492 566 37,900 -49 Descending Seattle Center
Fri 04:33:22 PM 46.2956 -118.5875 314° West 492 566 37,900 49 Level Seattle Center
Fri 04:34:23 PM 46.3889 -118.7292 314° West 492 566 38,000 49 Climbing Seattle Center
Fri 04:35:24 PM 46.4833 -118.8742 313° West 491 565 38,000  Level Seattle Center
Fri 04:36:26 PM 46.5786 -119.0181 314° West 491 565 38,000  Level Seattle Center
Fri 04:37:27 PM 46.6722 -119.1631 313° West 492 566 38,000 -49 Level Seattle Center
Fri 04:38:28 PM 46.7647 -119.3078 313° West 492 566 37,900 -49 Descending Seattle Center
Fri 04:39:29 PM 46.8575 -119.4539 313° West 492 566 37,900  Level Seattle Center
Fri 04:40:31 PM 46.9508 -119.6011 313° West 492 566 37,900  Level Seattle Center
Fri 04:41:32 PM 47.0436 -119.7472 313° West 492 566 37,900 49 Level Seattle Center
Fri 04:42:33 PM 47.1581 -119.9247 314° West 495 570 38,000 49 Climbing Seattle Center
Fri 04:43:34 PM 47.2492 -120.0719 312° West 493 567 38,000  Level Seattle Center
Fri 04:44:36 PM 47.3417 -120.2192 313° West 492 566 38,000  Level Seattle Center
Fri 04:45:37 PM 47.4339 -120.3681 313° West 492 566 38,000  Level Seattle Center
Fri 04:46:38 PM 47.5272 -120.5164 313° West 492 566 38,000  Level Seattle Center
Fri 04:47:39 PM 47.6183 -120.6658 312° West 492 566 38,000  Level Seattle Center
Fri 04:48:41 PM 47.7103 -120.8153 312° West 492 566 38,000  Level Seattle Center
Fri 04:49:42 PM 47.8086 -120.9667 314° West 495 570 38,000  Level Seattle Center
Fri 04:50:43 PM 47.8969 -121.1156 312° West 491 565 38,000  Level Seattle Center
Fri 04:51:45 PM 47.9864 -121.2633 312° West 484 557 38,000  Level Seattle Center
Fri 04:52:46 PM 48.0933 -121.4428 312° West 484 557 38,000  Level Seattle Center
Fri 04:53:47 PM 48.1831 -121.5944 312° West 486 559 38,000  Level Seattle Center
Fri 04:54:48 PM 48.2717 -121.7450 312° West 486 559 38,000  Level Seattle Center
Fri 04:55:50 PM 48.3603 -121.8967 311° West 486 559 38,000  Level Seattle Center
Fri 04:56:51 PM 48.4483 -122.0483 311° West 486 559 38,000  Level Seattle Center
Fri 04:57:52 PM 48.5372 -122.2006 311° West 486 559 38,000  Level Seattle Center
Fri 04:58:53 PM 48.6267 -122.3542 311° West 488 562 38,000  Level Seattle Center
Fri 04:59:27 PM 48.6833 -122.4667 307° West 490 564 38,000  Level Vancouver Center
Fri 05:00:27 PM 48.7667 -122.6167 310° West 490 564 38,000  Level Vancouver Center
Fri 05:01:27 PM 48.8500 -122.7833 307° West 500 575 38,000  Level Vancouver Center
Fri 05:02:27 PM 48.9500 -122.9333 315° West 500 575 38,000  Level Vancouver Center
Fri 05:03:27 PM 49.0333 -123.0833 310° West 500 575 38,000  Level Vancouver Center
Fri 05:04:27 PM 49.1167 -123.2667 305° West 510 587 38,000  Level Vancouver Center
Fri 05:05:27 PM 49.1833 -123.4500 299° West 510 587 38,000  Level Vancouver Center
Fri 05:06:27 PM 49.2500 -123.6500 297° West 500 575 38,000  Level Vancouver Center
Fri 05:07:27 PM 49.3167 -123.8000 304° West 490 564 38,000  Level Vancouver Center
Fri 05:08:27 PM 49.4000 -124.0000 303° West 490 564 38,000  Level Vancouver Center
Fri 05:09:27 PM 49.4667 -124.1833 299° West 500 575 38,000  Level Vancouver Center
Fri 05:10:27 PM 49.5500 -124.3667 305° West 500 575 38,000  Level Vancouver Center
Fri 05:11:27 PM 49.6167 -124.5500 299° West 490 564 38,000  Level Vancouver Center
Fri 05:12:27 PM 49.6833 -124.7333 299° West 490 564 38,000  Level Vancouver Center
Fri 05:13:27 PM 49.7500 -124.8833 305° West 490 564 38,000  Level Vancouver Center
Fri 05:14:27 PM 49.8167 -125.0667 299° West 490 564 38,000  Level Vancouver Center
Fri 05:15:27 PM 49.9000 -125.2500 305° West 490 564 38,000  Level Vancouver Center
Fri 05:16:27 PM 49.9667 -125.4333 300° West 490 564 38,000  Level Vancouver Center
Fri 05:17:27 PM 50.0333 -125.6167 300° West 490 564 38,000  Level Vancouver Center
Fri 05:18:27 PM 50.1000 -125.8000 300° West 490 564 38,000  Level Vancouver Center
Fri 05:19:27 PM 50.1667 -125.9833 300° West 490 564 38,000  Level Vancouver Center
Fri 05:20:27 PM 50.2333 -126.1667 300° West 490 564 38,000  Level Vancouver Center
Fri 05:21:27 PM 50.3000 -126.3667 298° West 490 564 38,000  Level Vancouver Center
Fri 05:22:27 PM 50.3833 -126.5500 306° West 490 564 38,000 150 Level Vancouver Center
Fri 05:23:27 PM 50.4333 -126.7333 293° West 490 564 38,300 550 Climbing Vancouver Center
Fri 05:24:27 PM 50.5167 -126.9167 306° West 490 564 39,100 750 Climbing Vancouver Center
Fri 05:25:27 PM 50.5833 -127.1167 298° West 490 564 39,800 450 Climbing Vancouver Center
Fri 05:26:27 PM 50.6333 -127.3000 293° West 490 564 40,000 100 Climbing Vancouver Center
Fri 05:27:27 PM 50.7000 -127.4833 300° West 490 564 40,000  Level Vancouver Center
Fri 05:28:27 PM 50.7667 -127.7000 296° West 500 575 40,000  Level Vancouver Center
Fri 05:29:27 PM 50.8000 -127.9000 285° West 490 564 40,000  Level Vancouver Center
Fri 05:30:27 PM 50.8667 -128.0833 300° West 500 575 40,000  Level Vancouver Center
Fri 05:31:27 PM 50.9000 -128.3000 284° West 490 564 40,000  Level Vancouver Center
Fri 05:32:27 PM 50.9667 -128.5000 298° West 490 564 40,000  Level Vancouver Center
Fri 05:33:27 PM 51.0000 -128.6833 286° West 490 564 40,000  Level Vancouver Center
Fri 05:34:27 PM 51.0667 -128.9000 296° West 490 564 40,000  Level Vancouver Center
Fri 05:35:27 PM 51.1000 -129.1000 285° West 490 564 40,000  Level Vancouver Center
Fri 05:36:27 PM 51.1667 -129.3167 296° West 490 564 40,000  Level Vancouver Center
Fri 05:37:27 PM 51.2000 -129.5000 286° West 490 564 40,000  Level Vancouver Center
Fri 05:38:27 PM 51.2667 -129.7333 295° West 490 564 40,000  Level Vancouver Center
Fri 05:39:27 PM 51.3000 -129.9167 286° West 490 564 40,000  Level Vancouver Center
Fri 05:40:27 PM 51.3500 -130.1167 292° West 490 564 40,000  Level Vancouver Center
Fri 05:41:27 PM 51.4000 -130.3000 294° West 480 552 40,000  Level Vancouver Center
Fri 05:42:27 PM 51.4333 -130.5000 285° West 480 552 40,000  Level Vancouver Center
Fri 05:43:27 PM 51.4833 -130.7167 290° West 480 552 40,000  Level Vancouver Center
Fri 05:44:27 PM 51.5333 -130.9167 292° West 480 552 40,000  Level Vancouver Center
Fri 05:45:27 PM 51.5833 -131.1167 292° West 480 552 40,000  Level Vancouver Center
Fri 05:46:27 PM 51.6167 -131.3333 284° West 490 564 40,000  Level Vancouver Center
Fri 05:47:27 PM 51.6667 -131.5333 292° West 480 552 40,000  Level Vancouver Center
Fri 05:48:27 PM 51.7167 -131.7500 291° West 490 564 40,000  Level Vancouver Center
Fri 05:49:27 PM 51.7667 -131.9500 292° West 480 552 40,000  Level Vancouver Center
Fri 05:50:27 PM 51.8000 -132.1500 285° West 480 552 40,000  Level Vancouver Center
Fri 05:51:27 PM 51.8333 -132.3500 285° West 490 564 40,000  Level Vancouver Center
Fri 05:52:27 PM 51.8833 -132.5500 292° West 480 552 40,000  Level Vancouver Center
Fri 05:53:27 PM 51.9167 -132.7667 284° West 480 552 40,000  Level Vancouver Center
Fri 05:54:27 PM 51.9667 -132.9667 292° West 480 552 40,000  Level Vancouver Center
Fri 05:55:27 PM 51.9833 -133.2000 277° West 480 552 40,000  Level Vancouver Center
Fri 05:56:27 PM 52.0000 -133.3833 278° West 480 552 40,000  Level Vancouver Center
Fri 05:57:27 PM 51.9833 -133.6333 264° West 470 541 40,000  Level Vancouver Center
Fri 05:58:27 PM 51.9833 -133.8167 270° West 470 541 40,000  Level Vancouver Center
Fri 05:59:27 PM 51.9833 -134.0167 270° West 470 541 40,000  Level Vancouver Center
Fri 06:00:27 PM 51.9833 -134.2333 270° West 470 541 40,000  Level Vancouver Center
Fri 06:01:27 PM 51.9833 -134.4500 270° West 470 541 40,000  Level Vancouver Center
Fri 06:02:27 PM 51.9833 -134.6667 270° West 460 529 40,000  Level Vancouver Center
Fri 06:03:27 PM 51.9833 -134.8667 270° West 470 541 40,000  Level Vancouver Center
Fri 06:04:27 PM 51.9833 -135.0833 270° West 460 529 40,000  Level Vancouver Center
Fri 06:05:27 PM 52.0000 -135.2667 278° West 460 529 40,000  Level Vancouver Center
Fri 06:06:27 PM 51.9833 -135.4833 292° West 460 529 40,000  Level Vancouver Center
Fri 06:06:37 PM 52.0000 -135.4500 292° West 478 550 40,000  Level Oakland Oceanic (ODAPS)
Fri 06:07:27 PM 52.0333 -135.7000 291° West 470 541 40,000  Level Vancouver Center
Fri 06:07:46 PM 52.0667 -135.7000 291° West 478 550 40,000  Level Oakland Oceanic (ODAPS)
Fri 06:08:27 PM 52.1000 -135.9000 291° West 480 552 40,000  Level Vancouver Center
Fri 06:09:27 PM 52.1167 -136.1000 278° West 480 552 40,000  Level Vancouver Center
Fri 06:10:27 PM 52.1833 -136.2833 301° West 480 552 40,000  Level Vancouver Center
Fri 06:11:27 PM 52.2167 -136.4833 285° West 470 541 40,000  Level Vancouver Center
Fri 06:12:27 PM 52.2500 -136.6833 285° West 480 552 40,000  Level Vancouver Center
Fri 06:13:27 PM 52.3167 -136.9000 297° West 480 552 40,000  Level Vancouver Center
Fri 06:14:27 PM 52.3500 -137.1000 285° West 480 552 40,000  Level Vancouver Center
Fri 06:15:27 PM 52.4000 -137.3167 291° West 480 552 40,000  Level Vancouver Center
Fri 06:16:27 PM 52.4500 -137.5167 292° West 480 552 40,000  Level Vancouver Center
Fri 06:17:27 PM 52.4833 -137.7333 284° West 480 552 40,000  Level Vancouver Center
Fri 06:18:27 PM 52.5333 -137.9167 290° West 480 552 40,000  Level Vancouver Center
Fri 06:18:36 PM 52.5500 -137.8667 290° West 479 551 40,000  Level Oakland Oceanic (ODAPS)
Fri 06:19:27 PM 52.5833 -138.1167 292° West 470 541 40,000  Level Vancouver Center
Fri 06:29:22 PM 53.0000 -140.0000 293° West 508 585 40,000  Level Oakland Oceanic (ODAPS)
Fri 06:32:23 PM 53.2000 -140.7833 292° West 509 586 40,000  Level Oakland Oceanic (ODAPS)
Fri 06:46:21 PM 53.8833 -143.8333 290° West 513 590 40,000  Level Oakland Oceanic (ODAPS)
Fri 07:00:07 PM 54.5167 -147.0500 287° West 520 598 40,000  Level Oakland Oceanic (ODAPS)
Fri 07:12:22 PM 55.0000 -150.0000 284° West 516 594 40,000  Level Oakland Oceanic (ODAPS)
Fri 07:13:54 PM 55.0500 -150.3667 284° West 515 593 40,000  Level Oakland Oceanic (ODAPS)
Fri 07:27:57 PM 55.4833 -153.7833 281° West 518 596 40,000  Level Oakland Oceanic (ODAPS)
Fri 07:30:16 PM 55.5333 -154.4000 279° West 540 621 40,000  Level Anchorage Center
Fri 07:31:00 PM 55.5569 -154.5076 280° West 515 593 40,000  Level FlightAware Transoceanic
Fri 07:31:16 PM 55.5667 -154.6500 283° West 510 587 40,000  Level Anchorage Center
Fri 07:32:00 PM 55.5823 -154.7543 280° West 515 593 40,000  Level FlightAware Transoceanic
Fri 07:32:17 PM 55.5833 -154.9000 277° West 520 598 40,000  Level Anchorage Center
Fri 07:33:00 PM 55.6072 -155.0014 280° West 515 593 40,000  Level FlightAware Transoceanic
Fri 07:34:00 PM 55.6418 -155.3213 280° West 518 596 40,000  Level FlightAware Transoceanic
Fri 07:34:20 PM 55.6333 -155.4000 280° West 520 598 40,000  Level Anchorage Center
Fri 07:35:00 PM 55.6664 -155.5789 279° West 518 596 40,000  Level FlightAware Transoceanic
Fri 07:35:20 PM 55.6667 -155.6667 283° West 520 598 40,000  Level Anchorage Center
Fri 07:36:20 PM 55.6833 -155.9167 277° West 520 598 40,000  Level Anchorage Center
Fri 07:37:20 PM 55.7000 -156.1667 277° West 520 598 40,000  Level Anchorage Center
Fri 07:38:21 PM 55.7333 -156.4333 283° West 520 598 40,000  Level Anchorage Center
Fri 07:39:21 PM 55.7500 -156.6833 277° West 510 587 40,000  Level Anchorage Center
Fri 07:40:21 PM 55.7667 -156.9333 277° West 520 598 40,000  Level Anchorage Center
Fri 07:41:20 PM 55.8000 -157.2000 283° West 510 587 40,000  Level Anchorage Center
Fri 07:42:21 PM 55.8167 -157.4500 277° West 520 598 40,000  Level Anchorage Center
Fri 07:43:21 PM 55.8333 -157.7000 277° West 510 587 40,000  Level Anchorage Center
Fri 07:44:21 PM 55.8500 -157.9500 277° West 500 575 40,000  Level Anchorage Center
Fri 07:45:22 PM 55.8833 -158.2167 283° West 510 587 40,000  Level Anchorage Center
Fri 07:46:22 PM 55.9000 -158.4667 277° West 510 587 40,000  Level Anchorage Center
Fri 07:47:22 PM 55.9167 -158.7333 276° West 520 598 40,000  Level Anchorage Center
Fri 07:48:22 PM 55.9333 -158.9833 277° West 530 610 40,000  Level Anchorage Center
Fri 07:49:23 PM 55.9500 -159.2500 276° West 540 621 40,000  Level Anchorage Center
Fri 07:50:23 PM 55.9667 -159.5000 277° West 520 598 40,000  Level Anchorage Center
Fri 07:51:23 PM 55.9833 -159.7667 276° West 520 598 40,000  Level Anchorage Center
Fri 07:52:23 PM 56.0000 -160.0167 277° West 520 598 40,000  Level Anchorage Center
Fri 07:53:24 PM 56.0000 -160.2667 270° West 510 587 40,000  Level Anchorage Center
Fri 07:54:24 PM 56.0167 -160.5333 276° West 510 587 40,000  Level Anchorage Center
Fri 07:55:25 PM 56.0167 -160.7833 270° West 520 598 40,000  Level Anchorage Center
Fri 07:56:25 PM 56.0333 -161.0500 276° West 510 587 40,000  Level Anchorage Center
Fri 07:57:25 PM 56.0333 -161.3333 270° West 510 587 40,000  Level Anchorage Center
Fri 07:58:25 PM 56.0500 -161.5833 277° West 510 587 40,000  Level Anchorage Center
Fri 07:59:26 PM 56.0500 -161.8500 270° West 510 587 40,000  Level Anchorage Center
Fri 08:00:26 PM 56.0667 -162.1000 277° West 510 587 40,000  Level Anchorage Center
Fri 08:01:26 PM 56.0667 -162.3667 270° West 510 587 40,000  Level Anchorage Center
Fri 08:02:27 PM 56.0667 -162.6167 270° West 510 587 40,000  Level Anchorage Center
Fri 08:03:27 PM 56.0833 -162.8667 277° West 510 587 40,000  Level Anchorage Center
Fri 08:05:22 PM 56.0833 -163.3167 270° West 510 587 40,000  Level Anchorage Center
Fri 08:06:22 PM 56.0833 -163.5833 270° West 520 598 40,000  Level Anchorage Center
Fri 08:07:22 PM 56.0833 -163.8333 270° West 520 598 40,000  Level Anchorage Center
Fri 08:08:22 PM 56.0833 -164.1000 270° West 510 587 40,000  Level Anchorage Center
Fri 08:09:22 PM 56.0833 -164.3500 270° West 510 587 40,000  Level Anchorage Center
Fri 08:10:22 PM 56.1000 -164.6000 277° West 510 587 40,000  Level Anchorage Center
Fri 08:11:23 PM 56.1000 -164.8667 270° West 510 587 40,000  Level Anchorage Center
Fri 08:12:23 PM 56.1000 -165.1167 270° West 510 587 40,000  Level Anchorage Center
Fri 08:13:23 PM 56.1000 -165.3667 270° West 510 587 40,000  Level Anchorage Center
Fri 08:14:23 PM 56.1000 -165.6333 270° West 510 587 40,000  Level Anchorage Center
Fri 08:15:23 PM 56.1000 -165.8833 270° West 510 587 40,000  Level Anchorage Center
Fri 08:16:23 PM 56.0833 -166.1333 263° West 500 575 40,000  Level Anchorage Center
Fri 08:17:23 PM 56.0833 -166.4000 270° West 500 575 40,000  Level Anchorage Center
Fri 08:18:23 PM 56.0833 -166.6667 270° West 510 587 40,000  Level Anchorage Center
Fri 08:19:23 PM 56.0833 -166.9167 270° West 510 587 40,000  Level Anchorage Center
Fri 08:20:23 PM 56.0833 -167.1667 270° West 500 575 40,000  Level Anchorage Center
Fri 08:21:23 PM 56.0667 -167.4167 263° West 510 587 40,000  Level Anchorage Center
Fri 08:22:23 PM 56.0667 -167.6833 270° West 500 575 40,000  Level Anchorage Center
Fri 08:23:23 PM 56.0667 -167.9333 270° West 510 587 40,000  Level Anchorage Center
Fri 08:24:23 PM 56.0500 -168.1833 263° West 510 587 40,000  Level Anchorage Center
Fri 08:25:23 PM 56.0500 -168.4500 270° West 500 575 40,000  Level Anchorage Center
Fri 08:26:24 PM 56.0333 -168.7000 263° West 510 587 40,000  Level Anchorage Center
Fri 08:27:23 PM 56.0333 -168.9500 270° West 500 575 40,000  Level Anchorage Center
Fri 08:28:24 PM 56.0167 -169.2167 264° West 510 587 40,000  Level Anchorage Center
Fri 08:29:24 PM 56.0167 -169.4667 270° West 500 575 40,000  Level Anchorage Center
Fri 08:30:24 PM 56.0000 -169.7167 263° West 510 587 40,000  Level Anchorage Center
Fri 08:31:24 PM 56.0000 -169.9833 270° West 510 587 40,000  Level Anchorage Center
Fri 08:32:24 PM 56.0000 -170.2333 270° West 510 587 40,000  Level Anchorage Center
Fri 08:33:24 PM 56.0167 -170.4833 277° West 500 575 40,000  Level Anchorage Center
Fri 08:34:24 PM 56.0167 -170.7333 270° West 500 575 40,000  Level Anchorage Center
Fri 08:35:24 PM 56.0333 -171.0000 276° West 520 598 40,000  Level Anchorage Center
Fri 08:36:24 PM 56.0333 -171.2500 270° West 510 587 40,000  Level Anchorage Center
Fri 08:37:24 PM 56.0500 -171.5167 276° West 510 587 40,000  Level Anchorage Center
Fri 08:38:24 PM 56.0500 -171.7667 270° West 510 587 40,000  Level Anchorage Center
Fri 08:39:24 PM 56.0667 -172.0167 277° West 500 575 40,000  Level Anchorage Center
Fri 08:40:24 PM 56.0667 -172.2667 270° West 510 587 40,000  Level Anchorage Center
Fri 08:41:24 PM 56.0667 -172.5167 270° West 510 587 40,000  Level Anchorage Center
Fri 08:42:24 PM 56.0667 -172.7667 270° West 500 575 40,000  Level Anchorage Center
Fri 08:43:24 PM 56.0833 -173.0333 277° West 510 587 40,000  Level Anchorage Center
Fri 08:44:24 PM 56.0833 -173.2833 270° West 500 575 40,000  Level Anchorage Center
Fri 08:45:24 PM 56.0833 -173.5333 270° West 510 587 40,000  Level Anchorage Center
Fri 08:46:25 PM 56.0833 -173.7833 270° West 500 575 40,000  Level Anchorage Center
Fri 08:47:25 PM 56.0833 -174.0333 270° West 490 564 40,000  Level Anchorage Center
Fri 08:48:25 PM 56.1000 -174.2833 277° West 500 575 40,000  Level Anchorage Center
Fri 08:49:25 PM 56.1000 -174.5333 270° West 500 575 40,000  Level Anchorage Center
Fri 08:50:25 PM 56.1000 -174.7833 270° West 500 575 40,000  Level Anchorage Center
Fri 08:51:25 PM 56.1000 -175.0333 270° West 500 575 40,000  Level Anchorage Center
Fri 08:52:25 PM 56.1000 -175.2833 270° West 500 575 40,000  Level Anchorage Center
Fri 08:53:25 PM 56.0833 -175.5333 263° West 500 575 40,000  Level Anchorage Center
Fri 08:54:25 PM 56.1000 -175.7500 278° West 510 587 40,000  Level Anchorage Center
Fri 08:55:25 PM 56.0833 -176.0000 263° West 500 575 40,000  Level Anchorage Center
Fri 08:56:25 PM 56.0833 -176.2500 270° West 500 575 40,000  Level Anchorage Center
Fri 09:03:38 PM 56.0667 -177.9000 268° West 510 587 40,000  Level Anchorage Center
Fri 09:11:59 PM 56.0000 180.0000 260° West 517 595 40,000  Level Anchorage Center
Fri 09:12:00 PM 55.9747 179.7433 260° West 510 587 40,000  Level FlightAware Transoceanic
Fri 09:12:32 PM 55.9667 179.6667 260° West 518 596 40,000  Level Anchorage Center
Fri 09:21:57 PM 55.7000 177.3000 258° West 519 597 40,000  Level Anchorage Center
Fri 09:22:00 PM 55.6958 177.2234 258° West 518 596 40,000  Level FlightAware Transoceanic
Fri 09:22:32 PM 55.6833 177.1667 258° West 510 587 40,000  Level Anchorage Center
Fri 09:23:00 PM 55.6660 176.9810 258° West 518 596 40,000  Level FlightAware Transoceanic
Fri 09:23:31 PM 55.6500 176.9500 255° West 510 587 40,000  Level Anchorage Center
Fri 09:24:00 PM 55.6358 176.7389 257° West 518 596 40,000  Level FlightAware Transoceanic
Fri 09:24:32 PM 55.6167 176.6833 258° West 510 587 40,000  Level Anchorage Center
Fri 09:25:00 PM 55.6051 176.4973 257° West 518 596 40,000  Level FlightAware Transoceanic
Fri 09:25:32 PM 55.5833 176.4167 258° West 520 598 40,000  Level Anchorage Center
Fri 09:26:00 PM 55.5739 176.2560 257° West 518 596 40,000  Level FlightAware Transoceanic
Fri 09:26:32 PM 55.5500 176.2000 255° West 520 598 40,000  Level Anchorage Center
Fri 09:27:00 PM 55.5423 176.0151 257° West 518 596 40,000  Level FlightAware Transoceanic
Fri 09:27:32 PM 55.5167 175.9167 258° West 520 598 40,000  Level Anchorage Center
Fri 09:28:32 PM 55.4833 175.7167 254° West 510 587 40,000  Level Anchorage Center
Fri 09:29:32 PM 55.4500 175.4500 258° West 510 587 40,000  Level Anchorage Center
Fri 09:30:32 PM 55.4333 175.2333 262° West 510 587 40,000  Level Anchorage Center
Fri 09:31:32 PM 55.3833 174.9667 252° West 510 587 40,000  Level Anchorage Center
Fri 09:32:32 PM 55.3500 174.7000 258° West 510 587 40,000  Level Anchorage Center
Fri 09:33:32 PM 55.3167 174.4833 255° West 510 587 40,000  Level Anchorage Center
Fri 09:34:33 PM 55.2833 174.2167 258° West 520 598 40,000  Level Anchorage Center
Fri 09:35:32 PM 55.2500 174.0167 254° West 520 598 40,000  Level Anchorage Center
Fri 09:36:32 PM 55.2000 173.7500 252° West 510 587 40,000  Level Anchorage Center
Fri 09:37:33 PM 55.1833 173.5333 262° West 510 587 40,000  Level Anchorage Center
Fri 09:38:33 PM 55.1333 173.2833 251° West 510 587 40,000  Level Anchorage Center
Fri 09:39:33 PM 55.1000 173.0167 258° West 520 598 40,000  Level Anchorage Center
Fri 09:40:33 PM 55.0667 172.8000 255° West 510 587 40,000  Level Anchorage Center
Fri 09:41:33 PM 55.0167 172.5500 251° West 510 587 40,000  Level Anchorage Center
Fri 09:42:33 PM 54.9833 172.3333 255° West 530 610 40,000  Level Anchorage Center
Fri 09:43:33 PM 54.9333 172.0833 251° West 510 587 40,000  Level Anchorage Center
Fri 09:44:33 PM 54.8833 171.8833 247° West 510 587 40,000  Level Anchorage Center
Fri 09:45:33 PM 54.8000 171.6667 236° Southwest 500 575 40,000  Level Anchorage Center
Fri 09:46:33 PM 54.7000 171.4500 231° Southwest 510 587 40,000  Level Anchorage Center
Fri 09:47:34 PM 54.6333 171.2833 235° Southwest 510 587 40,000  Level Anchorage Center
Fri 09:48:33 PM 54.5333 171.0500 234° Southwest 530 610 40,000  Level Anchorage Center
Fri 09:49:33 PM 54.4667 170.9000 233° Southwest 490 564 40,000  Level Anchorage Center
Fri 09:50:33 PM 54.3833 170.6833 237° Southwest 490 564 40,000  Level Anchorage Center
Fri 09:51:33 PM 54.3167 170.5167 236° Southwest 500 575 40,000  Level Anchorage Center
Fri 09:52:33 PM 54.2167 170.3000 232° Southwest 500 575 40,000  Level Anchorage Center
Fri 09:53:34 PM 54.1500 170.1500 233° Southwest 500 575 40,000  Level Anchorage Center
Fri 09:54:34 PM 54.0500 169.9333 232° Southwest 510 587 40,000  Level Anchorage Center
Fri 09:55:34 PM 53.9667 169.7167 237° Southwest 510 587 40,000  Level Anchorage Center
Fri 09:56:34 PM 53.8833 169.5667 227° Southwest 500 575 40,000  Level Anchorage Center
Fri 09:57:34 PM 53.8000 169.3500 237° Southwest 510 587 40,000  Level Anchorage Center
Fri 09:58:34 PM 53.7333 169.1833 236° Southwest 510 587 40,000  Level Anchorage Center
Fri 09:59:34 PM 53.6500 168.9667 237° Southwest 520 598 40,000  Level Anchorage Center
Fri 10:00:34 PM 53.6000 168.7833 245° Southwest 500 575 40,000  Level Anchorage Center
Fri 10:01:34 PM 53.5167 168.5667 237° Southwest 510 587 40,000  Level Anchorage Center
Fri 10:02:34 PM 53.4333 168.3333 239° Southwest 530 610 40,000  Level Anchorage Center
Fri 10:03:34 PM 53.3833 168.1667 243° Southwest 490 564 40,000  Level Anchorage Center
Fri 10:04:34 PM 53.3000 167.9500 237° Southwest 520 598 40,000  Level Anchorage Center
Fri 10:09:57 PM 52.9167 166.8667 239° Southwest 496 571 40,000  Level Anchorage Center
Fri 10:19:37 PM 52.2167 165.0167 237° Southwest 494 568 40,000  Level Anchorage Center
Fri 10:27:05 PM 51.6500 163.6500 236° Southwest 485 558 40,000  Level Anchorage Center
Fri 10:29:14 PM 51.5000 163.2500 236° Southwest 487 560 40,000  Level Anchorage Center
Fri 10:38:58 PM 50.7500 161.5667 235° Southwest 485 558 40,000  Level Anchorage Center
Fri 10:48:35 PM 49.9833 159.9167 234° Southwest 478 550 40,000  Level Anchorage Center
Fri 10:49:00 PM 49.9588 159.8530 233° Southwest 485 558 40,000  Level FlightAware Transoceanic
Fri 10:50:00 PM 49.8784 159.6848 233° Southwest 485 558 40,000  Level FlightAware Transoceanic
Fri 10:51:00 PM 49.7976 159.5171 233° Southwest 485 558 40,000  Level FlightAware Transoceanic
Fri 10:52:00 PM 49.7167 159.3500 233° Southwest 485 558 40,000  Level FlightAware Transoceanic
Fri 10:53:00 PM 49.6336 159.1805 233° Southwest 485 558 40,000  Level FlightAware Transoceanic
Fri 10:54:00 PM 49.5503 159.0116 233° Southwest 485 558 40,000  Level FlightAware Transoceanic
Fri 10:55:00 PM 49.4668 158.8432 233° Southwest 478 550 40,000  Level FlightAware Transoceanic
Fri 10:56:00 PM 49.3830 158.6754 232° Southwest 478 550 40,000  Level FlightAware Transoceanic
Fri 10:57:00 PM 49.2989 158.5082 232° Southwest 478 550 40,000  Level FlightAware Transoceanic
Fri 10:58:00 PM 49.2146 158.3416 232° Southwest 478 550 40,000  Level FlightAware Transoceanic
Fri 10:59:00 PM 49.1301 158.1755 232° Southwest 478 550 40,000  Level FlightAware Transoceanic
Fri 11:00:00 PM 49.0454 158.0100 232° Southwest 478 550 40,000  Level FlightAware Transoceanic
Fri 11:01:00 PM 48.9604 157.8450 232° Southwest 478 550 40,000  Level FlightAware Transoceanic
Fri 11:02:00 PM 48.8752 157.6806 232° Southwest 478 550 40,000  Level FlightAware Transoceanic
Fri 11:03:00 PM 48.7897 157.5168 232° Southwest 478 550 40,000  Level FlightAware Transoceanic
Fri 11:04:00 PM 48.7040 157.3536 231° Southwest 478 550 40,000  Level FlightAware Transoceanic
Fri 11:05:00 PM 48.6181 157.1909 231° Southwest 478 550 40,000  Level FlightAware Transoceanic
Fri 11:06:00 PM 48.5320 157.0287 231° Southwest 478 550 40,000  Level FlightAware Transoceanic
Fri 11:07:00 PM 48.4456 156.8671 231° Southwest 478 550 40,000  Level FlightAware Transoceanic
Fri 11:08:00 PM 48.3590 156.7060 231° Southwest 478 550 40,000  Level FlightAware Transoceanic
Fri 11:09:00 PM 48.2722 156.5455 231° Southwest 478 550 40,000  Level FlightAware Transoceanic
Fri 11:10:00 PM 48.1851 156.3856 231° Southwest 478 550 40,000  Level FlightAware Transoceanic
Fri 11:11:00 PM 48.0979 156.2262 231° Southwest 478 550 40,000  Level FlightAware Transoceanic
Fri 11:12:00 PM 48.0104 156.0673 230° Southwest 478 550 40,000  Level FlightAware Transoceanic
Fri 11:13:00 PM 47.9227 155.9089 230° Southwest 478 550 40,000  Level FlightAware Transoceanic
Fri 11:14:00 PM 47.8348 155.7511 230° Southwest 478 550 40,000  Level FlightAware Transoceanic
Fri 11:15:00 PM 47.7466 155.5939 230° Southwest 478 550 40,000  Level FlightAware Transoceanic
Fri 11:16:00 PM 47.6583 155.4371 230° Southwest 478 550 40,000  Level FlightAware Transoceanic
Fri 11:17:00 PM 47.5697 155.2809 230° Southwest 478 550 40,000  Level FlightAware Transoceanic
Fri 11:18:00 PM 47.4809 155.1253 230° Southwest 478 550 40,000  Level FlightAware Transoceanic
Fri 11:19:00 PM 47.3920 154.9701 230° Southwest 478 550 40,000  Level FlightAware Transoceanic
Fri 11:20:00 PM 47.3028 154.8155 230° Southwest 478 550 40,000  Level FlightAware Transoceanic
Fri 11:21:00 PM 47.2134 154.6614 229° Southwest 478 550 40,000  Level FlightAware Transoceanic
Fri 11:22:00 PM 47.1238 154.5078 229° Southwest 478 550 40,000  Level FlightAware Transoceanic
Fri 11:23:00 PM 47.0340 154.3547 229° Southwest 478 550 40,000  Level FlightAware Transoceanic
Fri 11:24:00 PM 46.9439 154.2022 229° Southwest 478 550 40,000  Level FlightAware Transoceanic
Fri 11:25:00 PM 46.8537 154.0501 229° Southwest 478 550 40,000  Level FlightAware Transoceanic
Fri 11:26:00 PM 46.7633 153.8986 229° Southwest 478 550 40,000  Level FlightAware Transoceanic
Fri 11:27:00 PM 46.6727 153.7476 229° Southwest 478 550 40,000  Level FlightAware Transoceanic
Fri 11:28:00 PM 46.5819 153.5970 229° Southwest 478 550 40,000  Level FlightAware Transoceanic
Fri 11:29:00 PM 46.4909 153.4470 229° Southwest 478 550 40,000  Level FlightAware Transoceanic
Fri 11:30:00 PM 46.3997 153.2975 228° Southwest 478 550 40,000  Level FlightAware Transoceanic
Fri 11:31:00 PM 46.3083 153.1485 228° Southwest 478 550 40,000  Level FlightAware Transoceanic
Fri 11:32:00 PM 46.2204 153.0061 228° Southwest  Level FlightAware Approximate
Fri 11:33:00 PM 46.1324 152.8641 228° Southwest  Level FlightAware Approximate
Fri 11:34:00 PM 46.1355 152.8710 228° Southwest  Level FlightAware Approximate
Fri 11:35:00 PM 46.0466 152.7304 228° Southwest  Level FlightAware Approximate
Fri 11:36:00 PM 45.9575 152.5903 228° Southwest  Level FlightAware Approximate
Fri 11:37:00 PM 45.8683 152.4506 227° Southwest  Level FlightAware Approximate
Fri 11:38:00 PM 45.7788 152.3114 227° Southwest  Level FlightAware Approximate
Fri 11:39:00 PM 45.6892 152.1726 227° Southwest  Level FlightAware Approximate
Fri 11:40:00 PM 45.5995 152.0342 227° Southwest  Level FlightAware Approximate
Fri 11:41:00 PM 45.5095 151.8963 227° Southwest  Level FlightAware Approximate
Fri 11:42:00 PM 45.4194 151.7589 227° Southwest  Level FlightAware Approximate
Fri 11:43:00 PM 45.3292 151.6219 227° Southwest  Level FlightAware Approximate
Fri 11:44:00 PM 45.2388 151.4853 227° Southwest  Level FlightAware Approximate
Fri 11:45:00 PM 45.1482 151.3491 227° Southwest  Level FlightAware Approximate
Fri 11:46:00 PM 45.0574 151.2134 227° Southwest  Level FlightAware Approximate
Fri 11:47:00 PM 44.9665 151.0781 227° Southwest  Level FlightAware Approximate
Fri 11:48:00 PM 44.8755 150.9432 226° Southwest  Level FlightAware Approximate
Fri 11:49:00 PM 44.7842 150.8088 226° Southwest  Level FlightAware Approximate
Fri 11:50:00 PM 44.6929 150.6748 226° Southwest  Level FlightAware Approximate
Fri 11:51:00 PM 44.6013 150.5412 226° Southwest  Level FlightAware Approximate
Fri 11:52:00 PM 44.5096 150.4080 226° Southwest  Level FlightAware Approximate
Fri 11:53:00 PM 44.4178 150.2753 226° Southwest  Level FlightAware Approximate
Fri 11:54:00 PM 44.3258 150.1429 226° Southwest  Level FlightAware Approximate
Fri 11:55:00 PM 44.2336 150.0110 226° Southwest  Level FlightAware Approximate
Fri 11:56:00 PM 44.1413 149.8795 226° Southwest  Level FlightAware Approximate
Fri 11:57:00 PM 44.0489 149.7484 225° Southwest  Level FlightAware Approximate
Fri 11:58:00 PM 43.9563 149.6177 225° Southwest  Level FlightAware Approximate
Fri 11:59:00 PM 43.8635 149.4874 225° Southwest  Level FlightAware Approximate
Sat 12:00:00 AM 43.7706 149.3575 225° Southwest  Level FlightAware Approximate
Sat 12:01:00 AM 43.6776 149.2281 225° Southwest  Level FlightAware Approximate
Sat 12:02:00 AM 43.5842 149.0993 225° Southwest  Level FlightAware Approximate
Sat 12:03:00 AM 43.4905 148.9711 225° Southwest  Level FlightAware Approximate
Sat 12:04:00 AM 43.3967 148.8434 225° Southwest  Level FlightAware Approximate
Sat 12:05:00 AM 43.3027 148.7160 225° Southwest  Level FlightAware Approximate
Sat 12:06:00 AM 43.2086 148.5889 225° Southwest  Level FlightAware Approximate
Sat 12:07:00 AM 43.1158 148.4603 225° Southwest  Level FlightAware Approximate
Sat 12:08:00 AM 43.0228 148.3322 225° Southwest  Level FlightAware Approximate
Sat 12:09:00 AM 42.9296 148.2045 225° Southwest  Level FlightAware Approximate
Sat 12:10:00 AM 42.8363 148.0771 225° Southwest  Level FlightAware Approximate
Sat 12:11:00 AM 42.7429 147.9501 225° Southwest  Level FlightAware Approximate
Sat 12:12:00 AM 42.6494 147.8235 225° Southwest  Level FlightAware Approximate
Sat 12:13:00 AM 42.5556 147.6973 225° Southwest  Level FlightAware Approximate
Sat 12:14:00 AM 42.4618 147.5715 225° Southwest  Level FlightAware Approximate
Sat 12:15:00 AM 42.3678 147.4460 225° Southwest  Level FlightAware Approximate
Sat 12:16:00 AM 42.2738 147.3208 225° Southwest  Level FlightAware Approximate
Sat 12:17:00 AM 42.1797 147.1959 225° Southwest  Level FlightAware Approximate
Sat 12:18:00 AM 42.0854 147.0714 224° Southwest  Level FlightAware Approximate
Sat 12:19:00 AM 41.9910 146.9473 224° Southwest  Level FlightAware Approximate
Sat 12:20:00 AM 41.8958 146.8244 222° Southwest  Level FlightAware Approximate
Sat 12:21:00 AM 41.7983 146.7051 222° Southwest  Level FlightAware Approximate
Sat 12:22:00 AM 41.7007 146.5861 222° Southwest  Level FlightAware Approximate
Sat 12:23:00 AM 41.6029 146.4675 222° Southwest  Level FlightAware Approximate
Sat 12:24:00 AM 41.5058 146.3481 224° Southwest  Level FlightAware Approximate
Sat 12:25:00 AM 41.4106 146.2262 224° Southwest  Level FlightAware Approximate
Sat 12:26:00 AM 41.3152 146.1048 224° Southwest  Level FlightAware Approximate
Sat 12:27:00 AM 41.2197 145.9836 224° Southwest  Level FlightAware Approximate
Sat 12:28:00 AM 41.1241 145.8628 224° Southwest  Level FlightAware Approximate
Sat 12:29:00 AM 41.0284 145.7423 224° Southwest  Level FlightAware Approximate
Sat 12:30:00 AM 40.9326 145.6221 223° Southwest  Level FlightAware Approximate
Sat 12:31:00 AM 40.8367 145.5022 223° Southwest  Level FlightAware Approximate
Sat 12:32:00 AM 40.7406 145.3827 223° Southwest  Level FlightAware Approximate
Sat 12:33:00 AM 40.6444 145.2636 223° Southwest  Level FlightAware Approximate
Sat 12:34:00 AM 40.5481 145.1447 223° Southwest  Level FlightAware Approximate
Sat 12:35:00 AM 40.4517 145.0263 223° Southwest  Level FlightAware Approximate
Sat 12:36:00 AM 40.3548 144.9088 223° Southwest  Level FlightAware Approximate
Sat 12:37:00 AM 40.2574 144.7919 223° Southwest  Level FlightAware Approximate
Sat 12:38:00 AM 40.1600 144.6754 222° Southwest  Level FlightAware Approximate
Sat 12:39:00 AM 40.0624 144.5593 222° Southwest  Level FlightAware Approximate
Sat 12:40:00 AM 39.9647 144.4434 222° Southwest  Level FlightAware Approximate
Sat 12:41:00 AM 39.8669 144.3279 222° Southwest  Level FlightAware Approximate
Sat 12:42:00 AM 39.7690 144.2128 222° Southwest  Level FlightAware Approximate
Sat 12:43:00 AM 39.6710 144.0979 222° Southwest  Level FlightAware Approximate
Sat 12:44:00 AM 39.5728 143.9834 222° Southwest  Level FlightAware Approximate
Sat 12:45:00 AM 39.4746 143.8692 222° Southwest  Level FlightAware Approximate
Sat 12:46:00 AM 39.3762 143.7554 222° Southwest  Level FlightAware Approximate
Sat 12:47:00 AM 39.2778 143.6418 222° Southwest  Level FlightAware Approximate
Sat 12:48:00 AM 39.1791 143.5286 221° Southwest  Level FlightAware Approximate
Sat 12:49:00 AM 39.0796 143.4170 221° Southwest  Level FlightAware Approximate
Sat 12:50:00 AM 38.9799 143.3056 221° Southwest  Level FlightAware Approximate
Sat 12:51:00 AM 38.8749 143.2071 197° South  Level FlightAware Approximate
Sat 12:52:00 AM 38.7483 143.1589 197° South  Level FlightAware Approximate
Sat 12:53:00 AM 38.6218 143.1109 197° South  Level FlightAware Approximate
Sat 12:54:00 AM 38.4953 143.0631 196° South  Level FlightAware Approximate
Sat 12:55:00 AM 38.3687 143.0154 196° South  Level FlightAware Approximate
Sat 12:56:00 AM 38.2421 142.9679 196° South  Level FlightAware Approximate
Sat 12:57:00 AM 38.1155 142.9206 196° South  Level FlightAware Approximate
Sat 12:58:00 AM 37.9889 142.8734 196° South  Level FlightAware Approximate
Sat 12:59:00 AM 37.8623 142.8264 196° South  Level FlightAware Approximate
Sat 01:00:00 AM 37.7356 142.7796 196° South  Level FlightAware Approximate
Sat 01:01:00 AM 37.6089 142.7329 196° South  Level FlightAware Approximate
Sat 01:02:00 AM 37.4823 142.6864 196° South  Level FlightAware Approximate
Sat 01:03:00 AM 37.3555 142.6400 196° South  Level FlightAware Approximate
Sat 01:04:00 AM 37.2288 142.5938 196° South  Level FlightAware Approximate
Sat 01:05:00 AM 37.1027 142.5451 197° South  Level FlightAware Approximate
Sat 01:06:00 AM 36.9767 142.4958 197° South  Level FlightAware Approximate
Sat 01:07:00 AM 36.8508 142.4466 197° South  Level FlightAware Approximate
Sat 01:08:00 AM 36.7237 142.4023 195° South  Level FlightAware Approximate
Sat 01:09:00 AM 36.5962 142.3598 195° South  Level FlightAware Approximate
Sat 01:10:00 AM 36.4692 142.3120 195° South  Level FlightAware Approximate
Sat 01:11:00 AM 36.3410 142.2692 195° South  Level FlightAware Approximate
Sat 01:12:00 AM 36.2127 142.2265 195° South  Level FlightAware Approximate
Sat 01:13:00 AM 36.0845 142.1837 195° South  Level FlightAware Approximate
Sat 01:14:00 AM 36.0195 142.0695 260° West  Level FlightAware Approximate
Sat 01:15:00 AM 35.9807 141.9128 252° West  Level FlightAware Approximate
Sat 01:16:00 AM 35.9393 141.7558 252° West  Level FlightAware Approximate
Sat 01:17:00 AM 35.9001 141.6002 253° West  Level FlightAware Approximate
Sat 01:18:00 AM 35.8893 141.4379 265° West  Level FlightAware Approximate
Sat 01:19:00 AM 35.8712 141.2769 258° West  Level FlightAware Approximate
Sat 01:20:00 AM 35.8459 141.1171 261° West  Level FlightAware Approximate
Sat 01:21:00 AM 35.8258 140.9562 261° West  Level FlightAware Approximate
Sat 01:22:00 AM 35.8124 140.7947 262° West  Level FlightAware Approximate
Sat 01:23:00 AM 35.7918 140.6341 258° West  Level FlightAware Approximate
Sat 01:24:00 AM 35.7734 140.5240 258° West  Level FlightAware Approximate
Sat 01:25:00 AM 35.7500 140.3833 253° West  Level FlightAware Approximate
Sat 01:26:00 AM 35.7647 140.3864 253° West  Level Estimated
Sat 01:27:00 AM 35.7647 140.3864 253° West  Level Estimated
Sat 01:28:00 AM 35.7647 140.3864 253° West  Level Estimated
Sat 01:29:00 AM 35.7647 140.3864 253° West  Level Estimated
Sat 01:30:00 AM 35.7647 140.3864 253° West  Level Estimated
Sat 01:31:00 AM 35.7647 140.3864 253° West  Level Estimated
Sat 01:32:00 AM 35.7647 140.3864 253° West  Level Estimated
Sat 01:33:00 AM 35.7647 140.3864 253° West  Level Estimated
Sat 01:34:00 AM 35.7647 140.3864 253° West  Level Estimated
Sat 01:35:00 AM 35.7647 140.3864 253° West  Level Estimated
Sat 01:36:00 AM 35.7647 140.3864 253° West  Level Estimated
Sat 01:37:00 AM 35.7647 140.3864 253° West  Level Estimated
Sat 01:38:00 AM 35.7647 140.3864 253° West  Level Estimated
Sat 01:39:00 AM 35.7647 140.3864 253° West  Level Estimated
Sat 01:40:00 AM 35.7647 140.3864 253° West  Level Estimated
Sat 01:41:00 AM 35.7647 140.3864 253° West  Level Estimated
Sat 01:42:00 AM 35.7647 140.3864 253° West  Level Estimated
Sat 01:43:00 AM 35.7647 140.3864 253° West  Level Estimated
Sat 01:44:00 AM 35.7647 140.3864 253° West  Level Estimated
Sat 01:45:00 AM 35.7647 140.3864 253° West  Level Estimated
Sat 01:46:00 AM 35.7647 140.3864 253° West  Level Estimated
Sat 01:47:00 AM 35.7647 140.3864 253° West  Level Estimated

Login

Don't have an account? Register now (free) for customized features, flight alerts, and more!